sensor_id;sensor_type;location;lat;lon;timestamp;pressure;altitude;pressure_sealevel;temperature;humidity
46690;BME280;32423;45.398;10.874;2023-04-01T00:00:54;99568.63;;;14.61;54.41
46690;BME280;32423;45.398;10.874;2023-04-01T00:03:46;99572.78;;;14.51;53.91
46690;BME280;32423;45.398;10.874;2023-04-01T00:06:38;99559.94;;;14.55;53.85
46690;BME280;32423;45.398;10.874;2023-04-01T00:09:30;99570.13;;;14.58;53.94
46690;BME280;32423;45.398;10.874;2023-04-01T00:12:22;99568.94;;;14.55;54.51
46690;BME280;32423;45.398;10.874;2023-04-01T00:15:14;99573.06;;;14.42;55.43
46690;BME280;32423;45.398;10.874;2023-04-01T00:18:06;99572.31;;;14.45;55.26
46690;BME280;32423;45.398;10.874;2023-04-01T00:20:58;99572.31;;;14.45;55.75
46690;BME280;32423;45.398;10.874;2023-04-01T00:23:50;99580.88;;;14.44;55.85
46690;BME280;32423;45.398;10.874;2023-04-01T00:26:39;99581.34;;;14.49;55.23
46690;BME280;32423;45.398;10.874;2023-04-01T00:29:31;99582.94;;;14.50;55.34
46690;BME280;32423;45.398;10.874;2023-04-01T00:32:24;99587.56;;;14.46;55.93
46690;BME280;32423;45.398;10.874;2023-04-01T00:35:16;99583.16;;;14.38;56.15
46690;BME280;32423;45.398;10.874;2023-04-01T00:38:08;99583.22;;;14.42;55.87
46690;BME280;32423;45.398;10.874;2023-04-01T00:41:00;99582.47;;;14.45;55.45
46690;BME280;32423;45.398;10.874;2023-04-01T00:43:52;99589.88;;;14.44;55.00
46690;BME280;32423;45.398;10.874;2023-04-01T00:46:44;99594.69;;;14.28;55.53
46690;BME280;32423;45.398;10.874;2023-04-01T00:49:36;99593.09;;;14.01;57.24
46690;BME280;32423;45.398;10.874;2023-04-01T00:52:29;99597.50;;;13.63;59.76
46690;BME280;32423;45.398;10.874;2023-04-01T00:55:21;99595.34;;;13.53;60.16
46690;BME280;32423;45.398;10.874;2023-04-01T00:58:14;99594.41;;;13.65;60.09
46690;BME280;32423;45.398;10.874;2023-04-01T01:01:06;99594.66;;;13.79;59.97
46690;BME280;32423;45.398;10.874;2023-04-01T01:03:59;99585.59;;;13.98;59.30
46690;BME280;32423;45.398;10.874;2023-04-01T01:06:51;99583.88;;;14.12;58.41
46690;BME280;32423;45.398;10.874;2023-04-01T01:12:42;99588.03;;;14.03;58.92
46690;BME280;32423;45.398;10.874;2023-04-01T01:18:38;99600.25;;;13.86;60.01
46690;BME280;32423;45.398;10.874;2023-04-01T01:21:37;99599.50;;;13.66;61.20
46690;BME280;32423;45.398;10.874;2023-04-01T01:24:49;99596.53;;;13.98;59.40
46690;BME280;32423;45.398;10.874;2023-04-01T01:27:41;99590.41;;;14.04;58.89
46690;BME280;32423;45.398;10.874;2023-04-01T01:30:53;99581.94;;;14.13;58.01
46690;BME280;32423;45.398;10.874;2023-04-01T01:36:47;99580.97;;;14.02;58.38
46690;BME280;32423;45.398;10.874;2023-04-01T01:39:40;99570.78;;;13.99;58.71
46690;BME280;32423;45.398;10.874;2023-04-01T01:42:31;99580.31;;;14.08;58.34
46690;BME280;32423;45.398;10.874;2023-04-01T01:45:24;99581.84;;;14.06;58.13
46690;BME280;32423;45.398;10.874;2023-04-01T01:48:17;99580.31;;;14.08;58.02
46690;BME280;32423;45.398;10.874;2023-04-01T01:51:09;99565.75;;;14.01;57.79
46690;BME280;32423;45.398;10.874;2023-04-01T01:54:01;99575.63;;;14.09;57.58
46690;BME280;32423;45.398;10.874;2023-04-01T01:56:53;99569.47;;;13.89;57.84
46690;BME280;32423;45.398;10.874;2023-04-01T01:59:47;99569.44;;;13.66;58.81
46690;BME280;32423;45.398;10.874;2023-04-01T02:02:47;99572.13;;;13.86;58.07
46690;BME280;32423;45.398;10.874;2023-04-01T02:05:34;99568.19;;;13.83;57.81
46690;BME280;32423;45.398;10.874;2023-04-01T02:08:30;99568.44;;;13.75;57.59
46690;BME280;32423;45.398;10.874;2023-04-01T02:11:28;99577.59;;;13.86;57.21
46690;BME280;32423;45.398;10.874;2023-04-01T02:14:22;99572.53;;;13.88;57.18
46690;BME280;32423;45.398;10.874;2023-04-01T02:17:16;99580.69;;;13.84;56.90
46690;BME280;32423;45.398;10.874;2023-04-01T02:20:11;99588.09;;;13.84;56.78
46690;BME280;32423;45.398;10.874;2023-04-01T02:23:04;99593.06;;;13.78;56.93
46690;BME280;32423;45.398;10.874;2023-04-01T02:25:57;99582.63;;;13.84;56.92
46690;BME280;32423;45.398;10.874;2023-04-01T02:28:49;99581.34;;;13.78;56.33
46690;BME280;32423;45.398;10.874;2023-04-01T02:31:42;99582.09;;;13.75;56.19
46690;BME280;32423;45.398;10.874;2023-04-01T02:34:34;99574.56;;;13.68;56.60
46690;BME280;32423;45.398;10.874;2023-04-01T02:37:26;99581.41;;;13.58;57.33
46690;BME280;32423;45.398;10.874;2023-04-01T02:40:16;99576.88;;;13.66;57.32
46690;BME280;32423;45.398;10.874;2023-04-01T02:43:08;99578.81;;;13.65;56.73
46690;BME280;32423;45.398;10.874;2023-04-01T02:46:00;99575.34;;;13.68;56.97
46690;BME280;32423;45.398;10.874;2023-04-01T02:48:51;99569.38;;;13.63;56.02
46690;BME280;32423;45.398;10.874;2023-04-01T02:51:43;99569.75;;;13.61;55.80
46690;BME280;32423;45.398;10.874;2023-04-01T02:54:35;99577.81;;;13.54;54.98
46690;BME280;32423;45.398;10.874;2023-04-01T02:57:27;99590.34;;;13.17;57.47
46690;BME280;32423;45.398;10.874;2023-04-01T03:00:19;99593.41;;;12.77;58.52
46690;BME280;32423;45.398;10.874;2023-04-01T03:03:11;99599.66;;;12.77;58.42
46690;BME280;32423;45.398;10.874;2023-04-01T03:06:09;99610.84;;;12.92;58.94
46690;BME280;32423;45.398;10.874;2023-04-01T03:09:01;99594.16;;;13.12;55.74
46690;BME280;32423;45.398;10.874;2023-04-01T03:11:51;99593.38;;;13.12;55.05
46690;BME280;32423;45.398;10.874;2023-04-01T03:14:43;99611.59;;;13.08;55.92
46690;BME280;32423;45.398;10.874;2023-04-01T03:17:35;99607.28;;;13.07;56.42
46690;BME280;32423;45.398;10.874;2023-04-01T03:20:24;99606.88;;;13.05;56.85
46690;BME280;32423;45.398;10.874;2023-04-01T03:23:13;99598.06;;;12.96;57.83
46690;BME280;32423;45.398;10.874;2023-04-01T03:26:05;99598.69;;;13.05;58.11
46690;BME280;32423;45.398;10.874;2023-04-01T03:28:57;99592.16;;;13.09;58.39
46690;BME280;32423;45.398;10.874;2023-04-01T03:31:49;99589.16;;;13.14;56.39
46690;BME280;32423;45.398;10.874;2023-04-01T03:34:41;99585.72;;;13.02;55.87
46690;BME280;32423;45.398;10.874;2023-04-01T03:37:32;99593.06;;;12.98;58.34
46690;BME280;32423;45.398;10.874;2023-04-01T03:40:24;99597.66;;;12.94;58.59
46690;BME280;32423;45.398;10.874;2023-04-01T03:43:16;99608.28;;;12.99;58.42
46690;BME280;32423;45.398;10.874;2023-04-01T03:46:08;99608.28;;;12.99;58.59
46690;BME280;32423;45.398;10.874;2023-04-01T03:49:00;99610.28;;;13.02;58.96
46690;BME280;32423;45.398;10.874;2023-04-01T03:51:52;99627.00;;;12.46;60.61
46690;BME280;32423;45.398;10.874;2023-04-01T03:54:43;99628.84;;;11.95;61.41
46690;BME280;32423;45.398;10.874;2023-04-01T03:57:35;99623.88;;;12.13;60.81
46690;BME280;32423;45.398;10.874;2023-04-01T04:00:35;99617.47;;;12.56;59.02
46690;BME280;32423;45.398;10.874;2023-04-01T04:03:29;99620.09;;;12.68;58.48
46690;BME280;32423;45.398;10.874;2023-04-01T04:06:21;99627.41;;;12.64;58.43
46690;BME280;32423;45.398;10.874;2023-04-01T04:09:11;99620.94;;;12.37;60.25
46690;BME280;32423;45.398;10.874;2023-04-01T04:12:03;99615.59;;;12.60;58.37
46690;BME280;32423;45.398;10.874;2023-04-01T04:14:55;99628.97;;;12.65;57.63
46690;BME280;32423;45.398;10.874;2023-04-01T04:17:47;99629.91;;;12.06;59.82
46690;BME280;32423;45.398;10.874;2023-04-01T04:20:39;99629.44;;;12.51;57.80
46690;BME280;32423;45.398;10.874;2023-04-01T04:23:34;99632.50;;;12.65;57.05
46690;BME280;32423;45.398;10.874;2023-04-01T04:26:26;99634.31;;;12.11;58.96
46690;BME280;32423;45.398;10.874;2023-04-01T04:29:20;99635.53;;;11.82;59.81
46690;BME280;32423;45.398;10.874;2023-04-01T04:32:12;99621.81;;;12.25;57.96
46690;BME280;32423;45.398;10.874;2023-04-01T04:35:04;99631.25;;;12.28;56.60
46690;BME280;32423;45.398;10.874;2023-04-01T04:37:56;99637.31;;;12.21;57.22
46690;BME280;32423;45.398;10.874;2023-04-01T04:40:47;99631.41;;;12.35;56.17
46690;BME280;32423;45.398;10.874;2023-04-01T04:43:37;99635.97;;;12.31;56.17
46690;BME280;32423;45.398;10.874;2023-04-01T04:46:29;99636.50;;;12.36;56.39
46690;BME280;32423;45.398;10.874;2023-04-01T04:49:28;99634.31;;;12.26;57.08
46690;BME280;32423;45.398;10.874;2023-04-01T04:52:22;99633.59;;;12.29;57.38
46690;BME280;32423;45.398;10.874;2023-04-01T04:55:12;99638.09;;;12.22;56.86
46690;BME280;32423;45.398;10.874;2023-04-01T04:58:04;99646.28;;;12.22;57.51
46690;BME280;32423;45.398;10.874;2023-04-01T05:00:56;99652.06;;;12.05;57.65
46690;BME280;32423;45.398;10.874;2023-04-01T05:03:50;99651.53;;;12.15;57.63
46690;BME280;32423;45.398;10.874;2023-04-01T05:06:40;99652.25;;;12.12;58.16
46690;BME280;32423;45.398;10.874;2023-04-01T05:09:29;99652.00;;;12.17;58.56
46690;BME280;32423;45.398;10.874;2023-04-01T05:12:21;99657.53;;;12.20;58.02
46690;BME280;32423;45.398;10.874;2023-04-01T05:15:20;99663.59;;;12.14;58.52
46690;BME280;32423;45.398;10.874;2023-04-01T05:18:12;99664.78;;;11.57;59.21
46690;BME280;32423;45.398;10.874;2023-04-01T05:21:09;99651.47;;;11.40;60.22
46690;BME280;32423;45.398;10.874;2023-04-01T05:24:01;99644.31;;;11.63;59.61
46690;BME280;32423;45.398;10.874;2023-04-01T05:26:53;99647.22;;;11.82;58.88
46690;BME280;32423;45.398;10.874;2023-04-01T05:29:45;99648.50;;;11.45;61.29
46690;BME280;32423;45.398;10.874;2023-04-01T05:33:01;99655.94;;;11.32;62.62
46690;BME280;32423;45.398;10.874;2023-04-01T05:35:53;99657.91;;;11.47;62.68
46690;BME280;32423;45.398;10.874;2023-04-01T05:38:40;99655.22;;;11.63;62.48
46690;BME280;32423;45.398;10.874;2023-04-01T05:41:33;99656.63;;;11.85;61.52
46690;BME280;32423;45.398;10.874;2023-04-01T05:44:26;99661.13;;;12.09;61.02
46690;BME280;32423;45.398;10.874;2023-04-01T05:47:25;99658.75;;;12.07;61.41
46690;BME280;32423;45.398;10.874;2023-04-01T05:50:17;99659.03;;;12.18;61.17
46690;BME280;32423;45.398;10.874;2023-04-01T05:53:09;99654.38;;;12.34;61.45
46690;BME280;32423;45.398;10.874;2023-04-01T05:56:05;99659.03;;;12.49;61.40
46690;BME280;32423;45.398;10.874;2023-04-01T05:58:59;99668.94;;;12.57;60.90
46690;BME280;32423;45.398;10.874;2023-04-01T06:01:51;99669.22;;;12.52;61.52
46690;BME280;32423;45.398;10.874;2023-04-01T06:04:42;99677.84;;;12.54;61.51
46690;BME280;32423;45.398;10.874;2023-04-01T06:07:34;99675.72;;;12.63;61.31
46690;BME280;32423;45.398;10.874;2023-04-01T06:10:28;99669.59;;;12.70;61.24
46690;BME280;32423;45.398;10.874;2023-04-01T06:25:50;99692.88;;;13.14;60.87
46690;BME280;32423;45.398;10.874;2023-04-01T06:35:13;99688.81;;;13.43;60.77
46690;BME280;32423;45.398;10.874;2023-04-01T06:38:10;99698.72;;;13.51;60.63
46690;BME280;32423;45.398;10.874;2023-04-01T06:44:13;99695.50;;;13.65;59.85
46690;BME280;32423;45.398;10.874;2023-04-01T06:57:38;99699.19;;;13.95;59.07
46690;BME280;32423;45.398;10.874;2023-04-01T07:00:37;99707.22;;;14.07;59.07
46690;BME280;32423;45.398;10.874;2023-04-01T07:03:43;99698.41;;;14.18;59.11
46690;BME280;32423;45.398;10.874;2023-04-01T07:09:41;99704.19;;;14.35;59.00
46690;BME280;32423;45.398;10.874;2023-04-01T07:13:04;99707.09;;;14.42;59.39
46690;BME280;32423;45.398;10.874;2023-04-01T07:16:28;99717.78;;;14.51;59.41
46690;BME280;32423;45.398;10.874;2023-04-01T07:19:28;99707.06;;;14.65;59.49
46690;BME280;32423;45.398;10.874;2023-04-01T07:22:32;99709.53;;;14.74;59.78
46690;BME280;32423;45.398;10.874;2023-04-01T07:25:36;99710.31;;;14.74;59.96
46690;BME280;32423;45.398;10.874;2023-04-01T07:28:51;99713.53;;;14.80;59.82
46690;BME280;32423;45.398;10.874;2023-04-01T07:40:51;99715.59;;;15.13;58.44
46690;BME280;32423;45.398;10.874;2023-04-01T07:47:05;99715.84;;;15.30;57.26
46690;BME280;32423;45.398;10.874;2023-04-01T07:50:10;99721.41;;;15.37;55.89
46690;BME280;32423;45.398;10.874;2023-04-01T07:53:15;99728.59;;;15.49;56.54
46690;BME280;32423;45.398;10.874;2023-04-01T07:56:11;99724.41;;;15.55;55.41
46690;BME280;32423;45.398;10.874;2023-04-01T07:59:04;99719.81;;;15.63;55.41
46690;BME280;32423;45.398;10.874;2023-04-01T08:05:19;99730.56;;;15.78;52.62
46690;BME280;32423;45.398;10.874;2023-04-01T08:15:14;99733.31;;;16.15;55.17
46690;BME280;32423;45.398;10.874;2023-04-01T08:21:26;99716.25;;;16.33;54.21
46690;BME280;32423;45.398;10.874;2023-04-01T08:24:28;99718.28;;;16.39;54.18
46690;BME280;32423;45.398;10.874;2023-04-01T08:27:25;99725.03;;;16.49;53.73
46690;BME280;32423;45.398;10.874;2023-04-01T08:30:23;99719.56;;;16.56;53.47
46690;BME280;32423;45.398;10.874;2023-04-01T08:33:16;99719.31;;;16.64;52.46
46690;BME280;32423;45.398;10.874;2023-04-01T08:36:23;99724.09;;;16.75;52.32
46690;BME280;32423;45.398;10.874;2023-04-01T08:42:46;99721.47;;;16.92;52.57
46690;BME280;32423;45.398;10.874;2023-04-01T08:49:13;99737.31;;;31.41;20.97
46690;BME280;32423;45.398;10.874;2023-04-01T08:55:22;99754.81;;;32.48;18.04
46690;BME280;32423;45.398;10.874;2023-04-01T08:58:32;99756.16;;;32.53;17.92
46690;BME280;32423;45.398;10.874;2023-04-01T09:08:12;99775.78;;;34.72;15.88
46690;BME280;32423;45.398;10.874;2023-04-01T09:35:31;99758.25;;;36.03;13.94
46690;BME280;32423;45.398;10.874;2023-04-01T09:41:22;99750.22;;;33.21;16.11
46690;BME280;32423;45.398;10.874;2023-04-01T09:44:26;99751.81;;;35.04;14.58
46690;BME280;32423;45.398;10.874;2023-04-01T09:47:51;99752.25;;;33.66;15.83
46690;BME280;32423;45.398;10.874;2023-04-01T09:50:57;99750.03;;;33.50;16.13
46690;BME280;32423;45.398;10.874;2023-04-01T10:10:03;99747.50;;;37.78;11.97
46690;BME280;32423;45.398;10.874;2023-04-01T10:24:57;99741.53;;;36.50;13.34
46690;BME280;32423;45.398;10.874;2023-04-01T10:34:04;99735.03;;;38.22;11.65
46690;BME280;32423;45.398;10.874;2023-04-01T10:53:37;99725.25;;;42.36;8.68
46690;BME280;32423;45.398;10.874;2023-04-01T11:19:12;99708.72;;;43.65;7.37
46690;BME280;32423;45.398;10.874;2023-04-01T11:22:14;99710.19;;;42.64;7.79
46690;BME280;32423;45.398;10.874;2023-04-01T11:29:24;99696.31;;;39.99;10.14
46690;BME280;32423;45.398;10.874;2023-04-01T11:32:13;99688.28;;;41.76;8.58
46690;BME280;32423;45.398;10.874;2023-04-01T11:38:19;99682.16;;;42.98;7.59
46690;BME280;32423;45.398;10.874;2023-04-01T11:41:18;99690.28;;;46.02;6.84
46690;BME280;32423;45.398;10.874;2023-04-01T11:44:43;99690.91;;;43.44;7.85
46690;BME280;32423;45.398;10.874;2023-04-01T11:47:46;99686.41;;;44.47;7.14
46690;BME280;32423;45.398;10.874;2023-04-01T11:56:39;99670.69;;;39.16;9.54
46690;BME280;32423;45.398;10.874;2023-04-01T11:59:31;99678.25;;;41.62;8.62
46690;BME280;32423;45.398;10.874;2023-04-01T12:02:34;99681.97;;;40.89;8.17
46690;BME280;32423;45.398;10.874;2023-04-01T12:08:46;99672.56;;;43.32;6.66
46690;BME280;32423;45.398;10.874;2023-04-01T12:20:50;99653.38;;;38.96;11.15
46690;BME280;32423;45.398;10.874;2023-04-01T12:26:47;99636.66;;;29.97;16.00
46690;BME280;32423;45.398;10.874;2023-04-01T12:29:54;99629.53;;;28.90;17.04
46690;BME280;32423;45.398;10.874;2023-04-01T12:38:56;99618.63;;;26.20;19.92
46690;BME280;32423;45.398;10.874;2023-04-01T13:00:12;99602.44;;;24.53;20.84
46690;BME280;32423;45.398;10.874;2023-04-01T13:12:27;99579.84;;;24.51;22.52
46690;BME280;32423;45.398;10.874;2023-04-01T13:15:21;99574.72;;;24.49;22.30
46690;BME280;32423;45.398;10.874;2023-04-01T13:18:28;99581.00;;;24.37;21.61
46690;BME280;32423;45.398;10.874;2023-04-01T13:27:24;99563.63;;;24.01;20.30
46690;BME280;32423;45.398;10.874;2023-04-01T13:36:33;99570.00;;;24.17;20.55
46690;BME280;32423;45.398;10.874;2023-04-01T13:39:45;99553.22;;;24.21;20.12
46690;BME280;32423;45.398;10.874;2023-04-01T13:42:40;99551.81;;;24.13;19.88
46690;BME280;32423;45.398;10.874;2023-04-01T13:45:43;99540.88;;;24.06;21.00
46690;BME280;32423;45.398;10.874;2023-04-01T13:48:44;99550.56;;;24.17;20.83
46690;BME280;32423;45.398;10.874;2023-04-01T13:51:52;99542.34;;;24.10;19.16
46690;BME280;32423;45.398;10.874;2023-04-01T13:58:05;99541.56;;;23.94;19.36
46690;BME280;32423;45.398;10.874;2023-04-01T14:10:31;99519.19;;;24.01;18.47
46690;BME280;32423;45.398;10.874;2023-04-01T14:16:29;99525.69;;;23.78;18.31
46690;BME280;32423;45.398;10.874;2023-04-01T14:34:50;99512.69;;;23.59;19.01
46690;BME280;32423;45.398;10.874;2023-04-01T14:43:55;99486.41;;;23.79;17.50
46690;BME280;32423;45.398;10.874;2023-04-01T14:50:04;99487.09;;;23.67;17.96
46690;BME280;32423;45.398;10.874;2023-04-01T14:55:57;99476.16;;;23.60;18.64
46690;BME280;32423;45.398;10.874;2023-04-01T14:58:50;99479.88;;;23.54;18.61
46690;BME280;32423;45.398;10.874;2023-04-01T15:01:48;99477.31;;;23.47;18.14
46690;BME280;32423;45.398;10.874;2023-04-01T15:11:13;99478.03;;;23.31;19.00
46690;BME280;32423;45.398;10.874;2023-04-01T15:23:34;99459.59;;;23.05;18.64
46690;BME280;32423;45.398;10.874;2023-04-01T15:26:39;99452.28;;;22.94;18.59
46690;BME280;32423;45.398;10.874;2023-04-01T15:29:36;99450.34;;;22.75;18.32
46690;BME280;32423;45.398;10.874;2023-04-01T15:35:31;99468.22;;;22.51;20.19
46690;BME280;32423;45.398;10.874;2023-04-01T15:38:39;99468.06;;;22.38;21.54
46690;BME280;32423;45.398;10.874;2023-04-01T15:44:37;99477.06;;;22.23;22.44
46690;BME280;32423;45.398;10.874;2023-04-01T15:47:46;99476.47;;;22.11;23.89
46690;BME280;32423;45.398;10.874;2023-04-01T15:50:51;99485.66;;;22.08;23.30
46690;BME280;32423;45.398;10.874;2023-04-01T15:53:46;99477.03;;;22.03;23.29
46690;BME280;32423;45.398;10.874;2023-04-01T16:00:02;99493.84;;;21.65;23.93
46690;BME280;32423;45.398;10.874;2023-04-01T16:06:13;99479.56;;;21.44;23.47
46690;BME280;32423;45.398;10.874;2023-04-01T16:12:17;99473.63;;;21.45;23.27
46690;BME280;32423;45.398;10.874;2023-04-01T16:15:21;99473.75;;;21.38;23.48
46690;BME280;32423;45.398;10.874;2023-04-01T16:18:18;99468.63;;;21.37;23.19
46690;BME280;32423;45.398;10.874;2023-04-01T16:21:20;99474.16;;;21.37;22.48
46690;BME280;32423;45.398;10.874;2023-04-01T16:24:20;99470.59;;;21.36;23.15
46690;BME280;32423;45.398;10.874;2023-04-01T16:27:26;99467.91;;;21.32;23.04
46690;BME280;32423;45.398;10.874;2023-04-01T16:36:24;99466.94;;;21.43;22.30
46690;BME280;32423;45.398;10.874;2023-04-01T16:45:28;99463.44;;;21.39;21.90
46690;BME280;32423;45.398;10.874;2023-04-01T16:48:25;99476.06;;;21.40;22.16
46690;BME280;32423;45.398;10.874;2023-04-01T16:51:19;99464.59;;;21.41;21.77
46690;BME280;32423;45.398;10.874;2023-04-01T16:57:28;99478.69;;;21.23;21.39
46690;BME280;32423;45.398;10.874;2023-04-01T17:00:24;99471.91;;;21.28;22.35
46690;BME280;32423;45.398;10.874;2023-04-01T17:03:20;99470.28;;;21.30;22.49
46690;BME280;32423;45.398;10.874;2023-04-01T17:15:27;99464.84;;;20.93;21.54
46690;BME280;32423;45.398;10.874;2023-04-01T17:27:47;99475.44;;;20.98;22.77
46690;BME280;32423;45.398;10.874;2023-04-01T17:36:36;99487.53;;;20.81;22.89
46690;BME280;32423;45.398;10.874;2023-04-01T17:39:36;99489.97;;;20.75;22.92
46690;BME280;32423;45.398;10.874;2023-04-01T17:48:44;99492.69;;;20.45;23.32
46690;BME280;32423;45.398;10.874;2023-04-01T17:57:55;99515.31;;;20.29;23.94
46690;BME280;32423;45.398;10.874;2023-04-01T18:15:47;99528.38;;;19.81;25.58
46690;BME280;32423;45.398;10.874;2023-04-01T18:21:53;99529.13;;;19.85;26.33
46690;BME280;32423;45.398;10.874;2023-04-01T18:24:54;99534.66;;;19.81;26.51
46690;BME280;32423;45.398;10.874;2023-04-01T18:30:59;99538.69;;;19.70;27.05
46690;BME280;32423;45.398;10.874;2023-04-01T18:34:15;99545.81;;;19.63;27.18
46690;BME280;32423;45.398;10.874;2023-04-01T18:37:18;99543.53;;;19.55;27.96
46690;BME280;32423;45.398;10.874;2023-04-01T18:40:20;99553.34;;;19.56;28.26
46690;BME280;32423;45.398;10.874;2023-04-01T18:43:22;99551.00;;;19.54;28.72
46690;BME280;32423;45.398;10.874;2023-04-01T18:46:21;99551.84;;;19.41;29.07
46690;BME280;32423;45.398;10.874;2023-04-01T18:49:23;99560.59;;;19.25;29.44
46690;BME280;32423;45.398;10.874;2023-04-01T19:10:17;99577.34;;;18.79;30.72
46690;BME280;32423;45.398;10.874;2023-04-01T19:19:41;99589.97;;;18.59;31.55
46690;BME280;32423;45.398;10.874;2023-04-01T19:25:40;99587.19;;;18.48;32.07
46690;BME280;32423;45.398;10.874;2023-04-01T19:31:34;99599.81;;;18.38;32.58
46690;BME280;32423;45.398;10.874;2023-04-01T19:43:41;99601.00;;;18.13;34.99
46690;BME280;32423;45.398;10.874;2023-04-01T19:46:36;99604.09;;;17.93;36.00
46690;BME280;32423;45.398;10.874;2023-04-01T19:49:42;99610.41;;;17.90;36.15
46690;BME280;32423;45.398;10.874;2023-04-01T19:52:38;99610.34;;;17.69;36.47
46690;BME280;32423;45.398;10.874;2023-04-01T19:55:38;99618.13;;;17.46;36.49
46690;BME280;32423;45.398;10.874;2023-04-01T19:58:50;99621.22;;;17.30;38.62
46690;BME280;32423;45.398;10.874;2023-04-01T20:04:49;99612.81;;;16.91;42.01
46690;BME280;32423;45.398;10.874;2023-04-01T20:07:48;99612.81;;;16.98;42.10
46690;BME280;32423;45.398;10.874;2023-04-01T20:10:50;99613.97;;;16.90;42.89
46690;BME280;32423;45.398;10.874;2023-04-01T20:13:52;99622.59;;;16.92;43.03
46690;BME280;32423;45.398;10.874;2023-04-01T20:16:53;99613.56;;;16.88;43.63
46690;BME280;32423;45.398;10.874;2023-04-01T20:19:54;99628.84;;;16.86;44.55
46690;BME280;32423;45.398;10.874;2023-04-01T20:25:46;99624.66;;;17.09;43.30
46690;BME280;32423;45.398;10.874;2023-04-01T20:31:44;99631.13;;;16.77;44.59
46690;BME280;32423;45.398;10.874;2023-04-01T20:37:52;99636.56;;;16.66;46.09
46690;BME280;32423;45.398;10.874;2023-04-01T20:40:49;99631.84;;;16.66;46.61
46690;BME280;32423;45.398;10.874;2023-04-01T20:47:15;99641.38;;;16.83;47.22
46690;BME280;32423;45.398;10.874;2023-04-01T20:50:21;99638.25;;;16.85;47.30
46690;BME280;32423;45.398;10.874;2023-04-01T20:53:16;99645.28;;;16.82;47.67
46690;BME280;32423;45.398;10.874;2023-04-01T21:02:22;99663.72;;;16.78;45.65
46690;BME280;32423;45.398;10.874;2023-04-01T21:11:11;99663.28;;;16.73;43.71
46690;BME280;32423;45.398;10.874;2023-04-01T21:17:13;99680.53;;;16.73;43.13
46690;BME280;32423;45.398;10.874;2023-04-01T21:29:06;99695.28;;;16.58;47.17
46690;BME280;32423;45.398;10.874;2023-04-01T21:35:06;99682.16;;;16.30;48.62
46690;BME280;32423;45.398;10.874;2023-04-01T21:38:06;99688.38;;;16.27;48.57
46690;BME280;32423;45.398;10.874;2023-04-01T21:41:11;99684.47;;;16.32;48.22
46690;BME280;32423;45.398;10.874;2023-04-01T21:44:11;99688.03;;;16.36;48.54
46690;BME280;32423;45.398;10.874;2023-04-01T21:56:12;99691.94;;;16.31;49.12
46690;BME280;32423;45.398;10.874;2023-04-01T22:02:45;99691.91;;;16.27;49.13
46690;BME280;32423;45.398;10.874;2023-04-01T22:05:47;99694.28;;;16.33;48.97
46690;BME280;32423;45.398;10.874;2023-04-01T22:11:47;99692.00;;;16.38;49.16
46690;BME280;32423;45.398;10.874;2023-04-01T22:17:52;99691.19;;;16.34;49.35
46690;BME280;32423;45.398;10.874;2023-04-01T22:20:50;99687.22;;;16.32;49.53
46690;BME280;32423;45.398;10.874;2023-04-01T22:23:46;99694.28;;;16.29;49.91
46690;BME280;32423;45.398;10.874;2023-04-01T22:26:46;99689.16;;;16.27;49.88
46690;BME280;32423;45.398;10.874;2023-04-01T22:30:04;99693.47;;;16.25;50.35
46690;BME280;32423;45.398;10.874;2023-04-01T22:32:51;99691.44;;;16.18;50.74
46690;BME280;32423;45.398;10.874;2023-04-01T22:50:48;99686.56;;;15.64;55.59
46690;BME280;32423;45.398;10.874;2023-04-01T22:53:44;99690.91;;;15.69;55.95
46690;BME280;32423;45.398;10.874;2023-04-01T22:56:56;99697.13;;;15.66;56.15
46690;BME280;32423;45.398;10.874;2023-04-01T23:05:52;99702.53;;;15.59;56.82
46690;BME280;32423;45.398;10.874;2023-04-01T23:11:55;99697.25;;;15.47;57.42
46690;BME280;32423;45.398;10.874;2023-04-01T23:14:53;99700.34;;;15.41;57.63
46690;BME280;32423;45.398;10.874;2023-04-01T23:18:00;99700.44;;;15.49;57.19
46690;BME280;32423;45.398;10.874;2023-04-01T23:26:55;99704.56;;;15.35;57.58
46690;BME280;32423;45.398;10.874;2023-04-01T23:29:49;99702.25;;;15.37;57.59
46690;BME280;32423;45.398;10.874;2023-04-01T23:32:41;99706.25;;;15.44;56.80
46690;BME280;32423;45.398;10.874;2023-04-01T23:35:33;99705.44;;;15.43;57.11
46690;BME280;32423;45.398;10.874;2023-04-01T23:38:26;99702.88;;;15.54;56.58
46690;BME280;32423;45.398;10.874;2023-04-01T23:41:21;99704.03;;;15.53;56.61
46690;BME280;32423;45.398;10.874;2023-04-01T23:44:13;99708.66;;;15.49;56.52
46690;BME280;32423;45.398;10.874;2023-04-01T23:47:05;99705.13;;;15.48;56.70
46690;BME280;32423;45.398;10.874;2023-04-01T23:49:59;99712.94;;;15.50;56.48
46690;BME280;32423;45.398;10.874;2023-04-01T23:53:02;99713.59;;;15.39;57.23
46690;BME280;32423;45.398;10.874;2023-04-01T23:55:52;99715.16;;;15.37;57.21
46690;BME280;32423;45.398;10.874;2023-04-01T23:58:44;99719.88;;;15.40;56.93
